sensor_id;sensor_type;location;lat;lon;timestamp;P1;durP1;ratioP1;P2;durP2;ratioP2
47153;SDS011;32907;41.412;2.164;2023-04-06T00:02:11;5.22;;;1.90;;
47153;SDS011;32907;41.412;2.164;2023-04-06T00:04:38;3.80;;;2.08;;
47153;SDS011;32907;41.412;2.164;2023-04-06T00:07:06;3.78;;;1.73;;
47153;SDS011;32907;41.412;2.164;2023-04-06T00:09:34;4.50;;;2.00;;
47153;SDS011;32907;41.412;2.164;2023-04-06T00:12:02;4.05;;;1.98;;
47153;SDS011;32907;41.412;2.164;2023-04-06T00:14:30;3.58;;;1.92;;
47153;SDS011;32907;41.412;2.164;2023-04-06T00:16:58;4.63;;;1.85;;
47153;SDS011;32907;41.412;2.164;2023-04-06T00:19:27;5.25;;;2.28;;
47153;SDS011;32907;41.412;2.164;2023-04-06T00:21:55;6.07;;;1.77;;
47153;SDS011;32907;41.412;2.164;2023-04-06T00:24:23;2.60;;;1.40;;
47153;SDS011;32907;41.412;2.164;2023-04-06T00:26:51;4.78;;;1.98;;
47153;SDS011;32907;41.412;2.164;2023-04-06T00:29:19;5.07;;;1.98;;
47153;SDS011;32907;41.412;2.164;2023-04-06T00:31:47;4.20;;;1.70;;
47153;SDS011;32907;41.412;2.164;2023-04-06T00:34:15;4.22;;;1.83;;
47153;SDS011;32907;41.412;2.164;2023-04-06T00:36:43;3.80;;;1.80;;
47153;SDS011;32907;41.412;2.164;2023-04-06T00:39:11;6.57;;;2.10;;
47153;SDS011;32907;41.412;2.164;2023-04-06T00:41:39;4.70;;;1.73;;
47153;SDS011;32907;41.412;2.164;2023-04-06T00:44:13;4.47;;;1.67;;
47153;SDS011;32907;41.412;2.164;2023-04-06T00:46:40;4.78;;;1.70;;
47153;SDS011;32907;41.412;2.164;2023-04-06T00:49:09;3.22;;;1.65;;
47153;SDS011;32907;41.412;2.164;2023-04-06T00:51:37;3.17;;;1.30;;
47153;SDS011;32907;41.412;2.164;2023-04-06T00:54:05;5.65;;;2.13;;
47153;SDS011;32907;41.412;2.164;2023-04-06T00:56:35;3.80;;;1.60;;
47153;SDS011;32907;41.412;2.164;2023-04-06T00:59:03;4.22;;;1.60;;
47153;SDS011;32907;41.412;2.164;2023-04-06T01:01:31;2.90;;;1.40;;
47153;SDS011;32907;41.412;2.164;2023-04-06T01:04:07;5.25;;;1.70;;
47153;SDS011;32907;41.412;2.164;2023-04-06T01:06:40;4.82;;;1.70;;
47153;SDS011;32907;41.412;2.164;2023-04-06T01:09:08;5.00;;;1.77;;
47153;SDS011;32907;41.412;2.164;2023-04-06T01:11:37;4.45;;;1.70;;
47153;SDS011;32907;41.412;2.164;2023-04-06T01:14:09;5.10;;;1.75;;
47153;SDS011;32907;41.412;2.164;2023-04-06T01:16:52;11.27;;;1.98;;
47153;SDS011;32907;41.412;2.164;2023-04-06T01:19:26;4.97;;;1.50;;
47153;SDS011;32907;41.412;2.164;2023-04-06T01:21:56;4.15;;;1.60;;
47153;SDS011;32907;41.412;2.164;2023-04-06T01:24:32;4.45;;;1.85;;
47153;SDS011;32907;41.412;2.164;2023-04-06T01:27:30;5.67;;;1.90;;
47153;SDS011;32907;41.412;2.164;2023-04-06T01:30:16;5.30;;;1.65;;
47153;SDS011;32907;41.412;2.164;2023-04-06T01:32:51;5.10;;;1.50;;
47153;SDS011;32907;41.412;2.164;2023-04-06T01:35:32;4.88;;;1.20;;
47153;SDS011;32907;41.412;2.164;2023-04-06T01:38:15;4.55;;;1.80;;
47153;SDS011;32907;41.412;2.164;2023-04-06T01:40:44;3.65;;;1.40;;
47153;SDS011;32907;41.412;2.164;2023-04-06T01:43:12;3.88;;;1.50;;
47153;SDS011;32907;41.412;2.164;2023-04-06T01:45:56;7.30;;;1.40;;
47153;SDS011;32907;41.412;2.164;2023-04-06T01:48:29;3.42;;;1.27;;
47153;SDS011;32907;41.412;2.164;2023-04-06T01:50:59;2.05;;;1.27;;
47153;SDS011;32907;41.412;2.164;2023-04-06T01:53:31;3.42;;;1.30;;
47153;SDS011;32907;41.412;2.164;2023-04-06T01:56:04;4.28;;;1.25;;
47153;SDS011;32907;41.412;2.164;2023-04-06T01:58:37;4.55;;;1.70;;
47153;SDS011;32907;41.412;2.164;2023-04-06T02:01:05;2.40;;;1.27;;
47153;SDS011;32907;41.412;2.164;2023-04-06T02:03:46;3.20;;;1.27;;
47153;SDS011;32907;41.412;2.164;2023-04-06T02:06:14;4.00;;;1.50;;
47153;SDS011;32907;41.412;2.164;2023-04-06T02:08:42;3.38;;;1.50;;
47153;SDS011;32907;41.412;2.164;2023-04-06T02:11:10;4.30;;;1.50;;
47153;SDS011;32907;41.412;2.164;2023-04-06T02:13:44;4.03;;;1.55;;
47153;SDS011;32907;41.412;2.164;2023-04-06T02:16:12;3.60;;;1.60;;
47153;SDS011;32907;41.412;2.164;2023-04-06T02:18:40;2.88;;;1.30;;
47153;SDS011;32907;41.412;2.164;2023-04-06T02:21:08;3.17;;;1.48;;
47153;SDS011;32907;41.412;2.164;2023-04-06T02:23:36;3.85;;;1.50;;
47153;SDS011;32907;41.412;2.164;2023-04-06T02:26:04;3.58;;;1.48;;
47153;SDS011;32907;41.412;2.164;2023-04-06T02:28:32;4.63;;;1.67;;
47153;SDS011;32907;41.412;2.164;2023-04-06T02:31:01;4.72;;;1.60;;
47153;SDS011;32907;41.412;2.164;2023-04-06T02:33:30;6.28;;;1.85;;
47153;SDS011;32907;41.412;2.164;2023-04-06T02:35:59;4.25;;;1.70;;
47153;SDS011;32907;41.412;2.164;2023-04-06T02:38:28;4.05;;;1.88;;
47153;SDS011;32907;41.412;2.164;2023-04-06T02:40:59;5.30;;;2.20;;
47153;SDS011;32907;41.412;2.164;2023-04-06T02:43:28;5.10;;;2.13;;
47153;SDS011;32907;41.412;2.164;2023-04-06T02:46:13;4.10;;;2.05;;
47153;SDS011;32907;41.412;2.164;2023-04-06T02:48:41;3.97;;;2.00;;
47153;SDS011;32907;41.412;2.164;2023-04-06T02:51:09;4.57;;;2.05;;
47153;SDS011;32907;41.412;2.164;2023-04-06T02:53:38;5.72;;;2.45;;
47153;SDS011;32907;41.412;2.164;2023-04-06T02:56:06;4.63;;;2.20;;
47153;SDS011;32907;41.412;2.164;2023-04-06T02:58:47;5.18;;;2.55;;
47153;SDS011;32907;41.412;2.164;2023-04-06T03:01:16;5.28;;;2.30;;
47153;SDS011;32907;41.412;2.164;2023-04-06T03:03:45;3.20;;;2.53;;
47153;SDS011;32907;41.412;2.164;2023-04-06T03:06:21;4.15;;;2.30;;
47153;SDS011;32907;41.412;2.164;2023-04-06T03:08:52;4.53;;;2.00;;
47153;SDS011;32907;41.412;2.164;2023-04-06T03:11:20;5.75;;;2.63;;
47153;SDS011;32907;41.412;2.164;2023-04-06T03:13:50;4.72;;;2.20;;
47153;SDS011;32907;41.412;2.164;2023-04-06T03:16:18;4.10;;;2.13;;
47153;SDS011;32907;41.412;2.164;2023-04-06T03:18:47;4.28;;;1.92;;
47153;SDS011;32907;41.412;2.164;2023-04-06T03:21:14;4.10;;;2.13;;
47153;SDS011;32907;41.412;2.164;2023-04-06T03:23:51;3.80;;;1.88;;
47153;SDS011;32907;41.412;2.164;2023-04-06T03:26:19;5.20;;;2.25;;
47153;SDS011;32907;41.412;2.164;2023-04-06T03:28:47;4.72;;;2.65;;
47153;SDS011;32907;41.412;2.164;2023-04-06T03:31:15;5.03;;;2.08;;
47153;SDS011;32907;41.412;2.164;2023-04-06T03:34:05;5.82;;;2.25;;
47153;SDS011;32907;41.412;2.164;2023-04-06T03:36:35;5.78;;;2.30;;
47153;SDS011;32907;41.412;2.164;2023-04-06T03:39:04;4.90;;;2.08;;
47153;SDS011;32907;41.412;2.164;2023-04-06T03:41:35;5.50;;;2.05;;
47153;SDS011;32907;41.412;2.164;2023-04-06T03:44:25;6.57;;;3.22;;
47153;SDS011;32907;41.412;2.164;2023-04-06T03:46:52;11.23;;;6.03;;
47153;SDS011;32907;41.412;2.164;2023-04-06T03:49:21;13.70;;;7.35;;
47153;SDS011;32907;41.412;2.164;2023-04-06T03:51:52;14.40;;;7.93;;
47153;SDS011;32907;41.412;2.164;2023-04-06T03:54:20;10.48;;;6.63;;
47153;SDS011;32907;41.412;2.164;2023-04-06T03:56:49;12.48;;;5.90;;
47153;SDS011;32907;41.412;2.164;2023-04-06T03:59:17;12.88;;;5.55;;
47153;SDS011;32907;41.412;2.164;2023-04-06T04:01:45;11.80;;;5.25;;
47153;SDS011;32907;41.412;2.164;2023-04-06T04:04:13;10.65;;;5.03;;
47153;SDS011;32907;41.412;2.164;2023-04-06T04:06:42;7.00;;;3.80;;
47153;SDS011;32907;41.412;2.164;2023-04-06T04:09:10;7.60;;;3.97;;
47153;SDS011;32907;41.412;2.164;2023-04-06T04:11:38;6.55;;;3.10;;
47153;SDS011;32907;41.412;2.164;2023-04-06T04:14:06;6.47;;;3.10;;
47153;SDS011;32907;41.412;2.164;2023-04-06T04:16:34;5.00;;;2.67;;
47153;SDS011;32907;41.412;2.164;2023-04-06T04:19:02;5.55;;;2.70;;
47153;SDS011;32907;41.412;2.164;2023-04-06T04:21:30;7.55;;;2.85;;
47153;SDS011;32907;41.412;2.164;2023-04-06T04:24:03;7.85;;;2.65;;
47153;SDS011;32907;41.412;2.164;2023-04-06T04:26:33;6.20;;;2.78;;
47153;SDS011;32907;41.412;2.164;2023-04-06T04:29:01;4.57;;;2.38;;
47153;SDS011;32907;41.412;2.164;2023-04-06T04:31:29;5.05;;;2.33;;
47153;SDS011;32907;41.412;2.164;2023-04-06T04:34:01;5.45;;;2.63;;
47153;SDS011;32907;41.412;2.164;2023-04-06T04:36:31;5.28;;;2.38;;
47153;SDS011;32907;41.412;2.164;2023-04-06T04:39:03;5.38;;;2.65;;
47153;SDS011;32907;41.412;2.164;2023-04-06T04:41:37;5.45;;;2.50;;
47153;SDS011;32907;41.412;2.164;2023-04-06T04:44:08;7.18;;;2.58;;
47153;SDS011;32907;41.412;2.164;2023-04-06T04:46:36;6.88;;;4.10;;
47153;SDS011;32907;41.412;2.164;2023-04-06T04:49:04;8.57;;;4.43;;
47153;SDS011;32907;41.412;2.164;2023-04-06T04:51:33;8.65;;;5.32;;
47153;SDS011;32907;41.412;2.164;2023-04-06T04:54:08;12.23;;;6.32;;
47153;SDS011;32907;41.412;2.164;2023-04-06T04:56:36;12.57;;;6.65;;
47153;SDS011;32907;41.412;2.164;2023-04-06T04:59:18;10.35;;;5.85;;
47153;SDS011;32907;41.412;2.164;2023-04-06T05:01:54;9.27;;;5.05;;
47153;SDS011;32907;41.412;2.164;2023-04-06T05:04:30;9.05;;;5.05;;
47153;SDS011;32907;41.412;2.164;2023-04-06T05:07:05;10.05;;;4.97;;
47153;SDS011;32907;41.412;2.164;2023-04-06T05:09:36;7.75;;;5.20;;
47153;SDS011;32907;41.412;2.164;2023-04-06T05:12:04;9.63;;;5.50;;
47153;SDS011;32907;41.412;2.164;2023-04-06T05:14:38;8.15;;;6.00;;
47153;SDS011;32907;41.412;2.164;2023-04-06T05:17:12;13.05;;;6.20;;
47153;SDS011;32907;41.412;2.164;2023-04-06T05:19:41;9.27;;;5.72;;
47153;SDS011;32907;41.412;2.164;2023-04-06T05:22:09;11.75;;;5.72;;
47153;SDS011;32907;41.412;2.164;2023-04-06T05:24:41;9.55;;;5.32;;
47153;SDS011;32907;41.412;2.164;2023-04-06T05:27:09;9.60;;;6.28;;
47153;SDS011;32907;41.412;2.164;2023-04-06T05:29:38;12.02;;;5.85;;
47153;SDS011;32907;41.412;2.164;2023-04-06T05:32:06;9.50;;;5.60;;
47153;SDS011;32907;41.412;2.164;2023-04-06T05:34:36;9.90;;;4.85;;
47153;SDS011;32907;41.412;2.164;2023-04-06T05:37:07;7.82;;;4.18;;
47153;SDS011;32907;41.412;2.164;2023-04-06T05:39:35;7.90;;;4.13;;
47153;SDS011;32907;41.412;2.164;2023-04-06T05:42:04;9.38;;;4.80;;
47153;SDS011;32907;41.412;2.164;2023-04-06T05:44:47;7.93;;;4.20;;
47153;SDS011;32907;41.412;2.164;2023-04-06T05:47:16;11.82;;;4.18;;
47153;SDS011;32907;41.412;2.164;2023-04-06T05:49:49;6.50;;;3.40;;
47153;SDS011;32907;41.412;2.164;2023-04-06T05:52:25;8.13;;;3.13;;
47153;SDS011;32907;41.412;2.164;2023-04-06T05:54:53;8.50;;;3.55;;
47153;SDS011;32907;41.412;2.164;2023-04-06T05:57:21;7.70;;;3.92;;
47153;SDS011;32907;41.412;2.164;2023-04-06T05:59:49;7.60;;;3.30;;
47153;SDS011;32907;41.412;2.164;2023-04-06T06:02:19;6.32;;;3.15;;
47153;SDS011;32907;41.412;2.164;2023-04-06T06:04:50;5.45;;;2.83;;
47153;SDS011;32907;41.412;2.164;2023-04-06T06:07:18;7.22;;;3.10;;
47153;SDS011;32907;41.412;2.164;2023-04-06T06:09:57;5.88;;;3.00;;
47153;SDS011;32907;41.412;2.164;2023-04-06T06:12:30;7.23;;;3.90;;
47153;SDS011;32907;41.412;2.164;2023-04-06T06:14:59;4.95;;;3.28;;
47153;SDS011;32907;41.412;2.164;2023-04-06T06:17:29;7.60;;;3.75;;
47153;SDS011;32907;41.412;2.164;2023-04-06T06:19:57;4.93;;;3.17;;
47153;SDS011;32907;41.412;2.164;2023-04-06T06:22:27;8.52;;;3.28;;
47153;SDS011;32907;41.412;2.164;2023-04-06T06:24:55;7.35;;;2.97;;
47153;SDS011;32907;41.412;2.164;2023-04-06T06:27:24;8.57;;;3.30;;
47153;SDS011;32907;41.412;2.164;2023-04-06T06:29:52;14.73;;;5.30;;
47153;SDS011;32907;41.412;2.164;2023-04-06T06:32:20;26.95;;;9.80;;
47153;SDS011;32907;41.412;2.164;2023-04-06T06:34:51;27.98;;;9.27;;
47153;SDS011;32907;41.412;2.164;2023-04-06T06:37:19;20.98;;;10.00;;
47153;SDS011;32907;41.412;2.164;2023-04-06T06:39:48;19.40;;;9.00;;
47153;SDS011;32907;41.412;2.164;2023-04-06T06:42:16;24.13;;;12.00;;
47153;SDS011;32907;41.412;2.164;2023-04-06T06:45:00;20.85;;;10.00;;
47153;SDS011;32907;41.412;2.164;2023-04-06T06:47:28;13.23;;;8.50;;
47153;SDS011;32907;41.412;2.164;2023-04-06T06:49:55;25.50;;;9.20;;
47153;SDS011;32907;41.412;2.164;2023-04-06T06:52:23;12.73;;;8.45;;
47153;SDS011;32907;41.412;2.164;2023-04-06T06:54:51;14.25;;;7.75;;
47153;SDS011;32907;41.412;2.164;2023-04-06T06:57:22;12.95;;;7.43;;
47153;SDS011;32907;41.412;2.164;2023-04-06T06:59:50;14.38;;;7.55;;
47153;SDS011;32907;41.412;2.164;2023-04-06T07:02:19;13.35;;;7.03;;
47153;SDS011;32907;41.412;2.164;2023-04-06T07:04:47;13.30;;;7.45;;
47153;SDS011;32907;41.412;2.164;2023-04-06T07:07:17;12.60;;;8.50;;
47153;SDS011;32907;41.412;2.164;2023-04-06T07:09:46;13.75;;;8.25;;
47153;SDS011;32907;41.412;2.164;2023-04-06T07:12:14;14.52;;;7.95;;
47153;SDS011;32907;41.412;2.164;2023-04-06T07:14:43;15.43;;;8.30;;
47153;SDS011;32907;41.412;2.164;2023-04-06T07:17:12;16.52;;;8.50;;
47153;SDS011;32907;41.412;2.164;2023-04-06T07:19:41;16.38;;;8.82;;
47153;SDS011;32907;41.412;2.164;2023-04-06T07:22:09;27.08;;;9.32;;
47153;SDS011;32907;41.412;2.164;2023-04-06T07:24:37;20.42;;;9.00;;
47153;SDS011;32907;41.412;2.164;2023-04-06T07:27:05;21.50;;;9.35;;
47153;SDS011;32907;41.412;2.164;2023-04-06T07:29:33;24.50;;;8.77;;
47153;SDS011;32907;41.412;2.164;2023-04-06T07:32:01;25.55;;;7.88;;
47153;SDS011;32907;41.412;2.164;2023-04-06T07:34:31;16.38;;;7.88;;
47153;SDS011;32907;41.412;2.164;2023-04-06T07:36:59;13.55;;;7.78;;
47153;SDS011;32907;41.412;2.164;2023-04-06T07:39:30;9.30;;;6.30;;
47153;SDS011;32907;41.412;2.164;2023-04-06T07:41:59;14.50;;;6.35;;
47153;SDS011;32907;41.412;2.164;2023-04-06T07:44:27;12.38;;;5.60;;
47153;SDS011;32907;41.412;2.164;2023-04-06T07:46:55;9.52;;;4.97;;
47153;SDS011;32907;41.412;2.164;2023-04-06T07:49:23;9.10;;;5.05;;
47153;SDS011;32907;41.412;2.164;2023-04-06T07:51:51;13.15;;;6.70;;
47153;SDS011;32907;41.412;2.164;2023-04-06T07:54:19;11.23;;;5.97;;
47153;SDS011;32907;41.412;2.164;2023-04-06T07:56:47;13.52;;;5.20;;
47153;SDS011;32907;41.412;2.164;2023-04-06T07:59:15;11.95;;;5.80;;
47153;SDS011;32907;41.412;2.164;2023-04-06T08:01:43;23.13;;;5.90;;
47153;SDS011;32907;41.412;2.164;2023-04-06T08:04:11;25.92;;;6.07;;
47153;SDS011;32907;41.412;2.164;2023-04-06T08:06:39;21.17;;;5.47;;
47153;SDS011;32907;41.412;2.164;2023-04-06T08:09:08;15.32;;;5.70;;
47153;SDS011;32907;41.412;2.164;2023-04-06T08:11:36;17.67;;;6.35;;
47153;SDS011;32907;41.412;2.164;2023-04-06T08:14:04;7.88;;;5.05;;
47153;SDS011;32907;41.412;2.164;2023-04-06T08:16:32;17.67;;;5.05;;
47153;SDS011;32907;41.412;2.164;2023-04-06T08:19:00;11.25;;;4.22;;
47153;SDS011;32907;41.412;2.164;2023-04-06T08:21:28;10.95;;;3.88;;
47153;SDS011;32907;41.412;2.164;2023-04-06T08:23:55;5.85;;;2.67;;
47153;SDS011;32907;41.412;2.164;2023-04-06T08:26:23;6.72;;;2.60;;
47153;SDS011;32907;41.412;2.164;2023-04-06T08:28:52;4.72;;;2.58;;
47153;SDS011;32907;41.412;2.164;2023-04-06T08:31:21;7.30;;;2.60;;
47153;SDS011;32907;41.412;2.164;2023-04-06T08:33:49;16.33;;;3.30;;
47153;SDS011;32907;41.412;2.164;2023-04-06T08:36:17;8.98;;;3.78;;
47153;SDS011;32907;41.412;2.164;2023-04-06T08:38:50;10.35;;;4.13;;
47153;SDS011;32907;41.412;2.164;2023-04-06T08:41:17;10.52;;;4.25;;
47153;SDS011;32907;41.412;2.164;2023-04-06T08:43:50;9.77;;;4.68;;
47153;SDS011;32907;41.412;2.164;2023-04-06T08:46:25;9.98;;;4.22;;
47153;SDS011;32907;41.412;2.164;2023-04-06T08:48:58;11.23;;;4.80;;
47153;SDS011;32907;41.412;2.164;2023-04-06T08:51:29;11.65;;;3.83;;
47153;SDS011;32907;41.412;2.164;2023-04-06T08:53:58;9.80;;;4.05;;
47153;SDS011;32907;41.412;2.164;2023-04-06T08:56:27;8.55;;;4.13;;
47153;SDS011;32907;41.412;2.164;2023-04-06T08:58:59;34.97;;;5.85;;
47153;SDS011;32907;41.412;2.164;2023-04-06T09:01:27;26.23;;;4.78;;
47153;SDS011;32907;41.412;2.164;2023-04-06T09:03:58;21.80;;;4.28;;
47153;SDS011;32907;41.412;2.164;2023-04-06T09:06:31;23.70;;;5.03;;
47153;SDS011;32907;41.412;2.164;2023-04-06T09:08:59;14.23;;;3.60;;
47153;SDS011;32907;41.412;2.164;2023-04-06T09:11:27;14.15;;;3.50;;
47153;SDS011;32907;41.412;2.164;2023-04-06T09:13:55;14.43;;;3.63;;
47153;SDS011;32907;41.412;2.164;2023-04-06T09:16:24;21.05;;;4.07;;
47153;SDS011;32907;41.412;2.164;2023-04-06T09:19:03;10.88;;;3.72;;
47153;SDS011;32907;41.412;2.164;2023-04-06T09:21:32;9.88;;;3.42;;
47153;SDS011;32907;41.412;2.164;2023-04-06T09:24:00;11.85;;;3.22;;
47153;SDS011;32907;41.412;2.164;2023-04-06T09:26:30;14.32;;;3.92;;
47153;SDS011;32907;41.412;2.164;2023-04-06T09:29:01;17.88;;;4.05;;
47153;SDS011;32907;41.412;2.164;2023-04-06T09:31:31;17.63;;;5.35;;
47153;SDS011;32907;41.412;2.164;2023-04-06T09:34:02;17.20;;;3.55;;
47153;SDS011;32907;41.412;2.164;2023-04-06T09:36:30;8.50;;;2.80;;
47153;SDS011;32907;41.412;2.164;2023-04-06T09:39:00;9.82;;;2.88;;
47153;SDS011;32907;41.412;2.164;2023-04-06T09:41:30;7.25;;;2.40;;
47153;SDS011;32907;41.412;2.164;2023-04-06T09:44:09;6.05;;;2.72;;
47153;SDS011;32907;41.412;2.164;2023-04-06T09:46:40;9.10;;;2.75;;
47153;SDS011;32907;41.412;2.164;2023-04-06T09:49:30;10.48;;;2.80;;
47153;SDS011;32907;41.412;2.164;2023-04-06T09:52:02;16.85;;;4.10;;
47153;SDS011;32907;41.412;2.164;2023-04-06T09:54:31;11.10;;;5.28;;
47153;SDS011;32907;41.412;2.164;2023-04-06T09:57:15;13.32;;;5.63;;
47153;SDS011;32907;41.412;2.164;2023-04-06T10:00:05;9.80;;;5.70;;
47153;SDS011;32907;41.412;2.164;2023-04-06T10:05:37;14.30;;;6.38;;
47153;SDS011;32907;41.412;2.164;2023-04-06T10:08:06;12.98;;;5.50;;
47153;SDS011;32907;41.412;2.164;2023-04-06T10:10:36;12.90;;;6.65;;
47153;SDS011;32907;41.412;2.164;2023-04-06T10:13:05;14.93;;;6.45;;
47153;SDS011;32907;41.412;2.164;2023-04-06T10:15:35;15.45;;;6.55;;
47153;SDS011;32907;41.412;2.164;2023-04-06T10:18:05;14.90;;;7.32;;
47153;SDS011;32907;41.412;2.164;2023-04-06T10:20:55;13.95;;;7.30;;
47153;SDS011;32907;41.412;2.164;2023-04-06T10:26:01;23.08;;;9.90;;
47153;SDS011;32907;41.412;2.164;2023-04-06T10:28:34;24.60;;;10.07;;
47153;SDS011;32907;41.412;2.164;2023-04-06T10:31:06;20.40;;;9.20;;
47153;SDS011;32907;41.412;2.164;2023-04-06T10:33:34;15.82;;;9.05;;
47153;SDS011;32907;41.412;2.164;2023-04-06T10:36:13;19.42;;;9.15;;
47153;SDS011;32907;41.412;2.164;2023-04-06T10:38:44;15.07;;;9.05;;
47153;SDS011;32907;41.412;2.164;2023-04-06T10:41:12;15.98;;;7.93;;
47153;SDS011;32907;41.412;2.164;2023-04-06T10:43:42;12.68;;;7.20;;
47153;SDS011;32907;41.412;2.164;2023-04-06T10:46:12;11.35;;;7.18;;
47153;SDS011;32907;41.412;2.164;2023-04-06T10:48:51;10.80;;;7.05;;
47153;SDS011;32907;41.412;2.164;2023-04-06T10:51:24;17.17;;;7.97;;
47153;SDS011;32907;41.412;2.164;2023-04-06T10:53:54;12.32;;;7.10;;
47153;SDS011;32907;41.412;2.164;2023-04-06T10:56:23;20.27;;;7.38;;
47153;SDS011;32907;41.412;2.164;2023-04-06T10:58:55;13.15;;;6.13;;
47153;SDS011;32907;41.412;2.164;2023-04-06T11:01:24;11.63;;;7.07;;
47153;SDS011;32907;41.412;2.164;2023-04-06T11:03:56;13.32;;;8.30;;
47153;SDS011;32907;41.412;2.164;2023-04-06T11:06:28;16.75;;;8.60;;
47153;SDS011;32907;41.412;2.164;2023-04-06T11:08:58;13.38;;;7.57;;
47153;SDS011;32907;41.412;2.164;2023-04-06T11:11:27;11.32;;;5.88;;
47153;SDS011;32907;41.412;2.164;2023-04-06T11:13:55;10.50;;;5.75;;
47153;SDS011;32907;41.412;2.164;2023-04-06T11:16:26;9.50;;;5.07;;
47153;SDS011;32907;41.412;2.164;2023-04-06T11:18:59;11.60;;;5.85;;
47153;SDS011;32907;41.412;2.164;2023-04-06T11:21:36;10.60;;;5.85;;
47153;SDS011;32907;41.412;2.164;2023-04-06T11:24:15;13.82;;;6.05;;
47153;SDS011;32907;41.412;2.164;2023-04-06T11:26:51;11.40;;;5.80;;
47153;SDS011;32907;41.412;2.164;2023-04-06T11:29:23;17.25;;;6.03;;
47153;SDS011;32907;41.412;2.164;2023-04-06T11:32:19;12.80;;;5.65;;
47153;SDS011;32907;41.412;2.164;2023-04-06T11:34:48;12.57;;;5.47;;
47153;SDS011;32907;41.412;2.164;2023-04-06T11:37:18;11.25;;;5.45;;
47153;SDS011;32907;41.412;2.164;2023-04-06T11:39:50;8.48;;;5.05;;
47153;SDS011;32907;41.412;2.164;2023-04-06T11:42:29;11.68;;;6.10;;
47153;SDS011;32907;41.412;2.164;2023-04-06T11:44:58;12.40;;;5.60;;
47153;SDS011;32907;41.412;2.164;2023-04-06T11:47:35;11.93;;;5.65;;
47153;SDS011;32907;41.412;2.164;2023-04-06T11:52:39;11.27;;;5.68;;
47153;SDS011;32907;41.412;2.164;2023-04-06T11:55:12;10.95;;;6.57;;
47153;SDS011;32907;41.412;2.164;2023-04-06T11:57:44;10.85;;;5.32;;
47153;SDS011;32907;41.412;2.164;2023-04-06T12:00:16;10.23;;;4.00;;
47153;SDS011;32907;41.412;2.164;2023-04-06T12:02:47;8.98;;;4.57;;
47153;SDS011;32907;41.412;2.164;2023-04-06T12:05:16;8.07;;;3.63;;
47153;SDS011;32907;41.412;2.164;2023-04-06T12:07:44;8.50;;;4.00;;
47153;SDS011;32907;41.412;2.164;2023-04-06T12:10:13;9.10;;;3.50;;
47153;SDS011;32907;41.412;2.164;2023-04-06T12:12:41;11.25;;;3.70;;
47153;SDS011;32907;41.412;2.164;2023-04-06T12:15:09;8.93;;;3.72;;
47153;SDS011;32907;41.412;2.164;2023-04-06T12:17:37;9.43;;;3.55;;
47153;SDS011;32907;41.412;2.164;2023-04-06T12:20:05;7.05;;;2.70;;
47153;SDS011;32907;41.412;2.164;2023-04-06T12:22:51;7.22;;;3.10;;
47153;SDS011;32907;41.412;2.164;2023-04-06T12:25:21;8.25;;;3.40;;
47153;SDS011;32907;41.412;2.164;2023-04-06T12:27:49;8.88;;;4.47;;
47153;SDS011;32907;41.412;2.164;2023-04-06T12:30:17;11.13;;;4.20;;
47153;SDS011;32907;41.412;2.164;2023-04-06T12:32:45;8.50;;;3.95;;
47153;SDS011;32907;41.412;2.164;2023-04-06T12:35:17;6.68;;;3.95;;
47153;SDS011;32907;41.412;2.164;2023-04-06T12:37:44;10.40;;;3.53;;
47153;SDS011;32907;41.412;2.164;2023-04-06T12:40:13;8.35;;;3.17;;
47153;SDS011;32907;41.412;2.164;2023-04-06T12:42:46;7.35;;;2.75;;
47153;SDS011;32907;41.412;2.164;2023-04-06T12:45:14;8.35;;;2.95;;
47153;SDS011;32907;41.412;2.164;2023-04-06T12:47:43;7.82;;;2.70;;
47153;SDS011;32907;41.412;2.164;2023-04-06T12:50:11;6.78;;;3.00;;
47153;SDS011;32907;41.412;2.164;2023-04-06T12:52:39;6.20;;;2.15;;
47153;SDS011;32907;41.412;2.164;2023-04-06T12:55:08;7.85;;;2.53;;
47153;SDS011;32907;41.412;2.164;2023-04-06T12:57:36;3.17;;;1.83;;
47153;SDS011;32907;41.412;2.164;2023-04-06T13:00:05;4.30;;;2.13;;
47153;SDS011;32907;41.412;2.164;2023-04-06T13:02:35;3.70;;;2.00;;
47153;SDS011;32907;41.412;2.164;2023-04-06T13:05:04;5.53;;;2.40;;
47153;SDS011;32907;41.412;2.164;2023-04-06T13:07:32;5.97;;;2.50;;
47153;SDS011;32907;41.412;2.164;2023-04-06T13:10:02;5.68;;;3.42;;
47153;SDS011;32907;41.412;2.164;2023-04-06T13:12:31;11.52;;;6.28;;
47153;SDS011;32907;41.412;2.164;2023-04-06T13:14:59;10.77;;;6.20;;
47153;SDS011;32907;41.412;2.164;2023-04-06T13:17:29;10.90;;;6.00;;
47153;SDS011;32907;41.412;2.164;2023-04-06T13:19:57;9.30;;;4.93;;
47153;SDS011;32907;41.412;2.164;2023-04-06T13:22:25;6.70;;;3.22;;
47153;SDS011;32907;41.412;2.164;2023-04-06T13:24:53;4.95;;;3.25;;
47153;SDS011;32907;41.412;2.164;2023-04-06T13:27:22;6.30;;;2.53;;
47153;SDS011;32907;41.412;2.164;2023-04-06T13:29:50;4.93;;;2.17;;
47153;SDS011;32907;41.412;2.164;2023-04-06T13:32:17;6.05;;;2.28;;
47153;SDS011;32907;41.412;2.164;2023-04-06T13:34:45;5.95;;;2.90;;
47153;SDS011;32907;41.412;2.164;2023-04-06T13:37:15;6.80;;;3.80;;
47153;SDS011;32907;41.412;2.164;2023-04-06T13:39:43;7.82;;;4.40;;
47153;SDS011;32907;41.412;2.164;2023-04-06T13:42:11;11.85;;;5.30;;
47153;SDS011;32907;41.412;2.164;2023-04-06T13:44:38;10.07;;;3.97;;
47153;SDS011;32907;41.412;2.164;2023-04-06T13:47:07;9.23;;;4.53;;
47153;SDS011;32907;41.412;2.164;2023-04-06T13:49:35;6.90;;;3.22;;
47153;SDS011;32907;41.412;2.164;2023-04-06T13:52:03;4.90;;;2.92;;
47153;SDS011;32907;41.412;2.164;2023-04-06T13:54:33;4.97;;;3.00;;
47153;SDS011;32907;41.412;2.164;2023-04-06T13:57:02;6.35;;;2.88;;
47153;SDS011;32907;41.412;2.164;2023-04-06T13:59:36;7.75;;;2.75;;
47153;SDS011;32907;41.412;2.164;2023-04-06T14:02:05;7.28;;;2.40;;
47153;SDS011;32907;41.412;2.164;2023-04-06T14:04:35;5.43;;;2.75;;
47153;SDS011;32907;41.412;2.164;2023-04-06T14:07:03;5.50;;;1.95;;
47153;SDS011;32907;41.412;2.164;2023-04-06T14:09:31;4.05;;;1.83;;
47153;SDS011;32907;41.412;2.164;2023-04-06T14:11:59;4.78;;;2.33;;
47153;SDS011;32907;41.412;2.164;2023-04-06T14:14:27;4.43;;;2.03;;
47153;SDS011;32907;41.412;2.164;2023-04-06T14:16:55;4.13;;;1.80;;
47153;SDS011;32907;41.412;2.164;2023-04-06T14:19:22;3.75;;;1.98;;
47153;SDS011;32907;41.412;2.164;2023-04-06T14:21:51;4.90;;;1.90;;
47153;SDS011;32907;41.412;2.164;2023-04-06T14:24:19;4.00;;;1.50;;
47153;SDS011;32907;41.412;2.164;2023-04-06T14:26:47;3.03;;;1.30;;
47153;SDS011;32907;41.412;2.164;2023-04-06T14:29:15;3.45;;;1.42;;
47153;SDS011;32907;41.412;2.164;2023-04-06T14:31:47;5.80;;;1.75;;
47153;SDS011;32907;41.412;2.164;2023-04-06T14:34:15;3.20;;;1.20;;
47153;SDS011;32907;41.412;2.164;2023-04-06T14:36:44;4.63;;;1.05;;
47153;SDS011;32907;41.412;2.164;2023-04-06T14:39:13;3.13;;;1.02;;
47153;SDS011;32907;41.412;2.164;2023-04-06T14:41:40;2.30;;;1.20;;
47153;SDS011;32907;41.412;2.164;2023-04-06T14:44:17;3.63;;;1.55;;
47153;SDS011;32907;41.412;2.164;2023-04-06T14:46:45;3.95;;;1.23;;
47153;SDS011;32907;41.412;2.164;2023-04-06T14:49:13;8.55;;;1.40;;
47153;SDS011;32907;41.412;2.164;2023-04-06T14:51:43;4.25;;;1.40;;
47153;SDS011;32907;41.412;2.164;2023-04-06T14:54:11;3.63;;;1.30;;
47153;SDS011;32907;41.412;2.164;2023-04-06T14:56:39;2.67;;;1.30;;
47153;SDS011;32907;41.412;2.164;2023-04-06T14:59:07;3.45;;;1.42;;
47153;SDS011;32907;41.412;2.164;2023-04-06T15:01:35;2.53;;;1.50;;
47153;SDS011;32907;41.412;2.164;2023-04-06T15:04:03;4.03;;;1.80;;
47153;SDS011;32907;41.412;2.164;2023-04-06T15:06:31;5.70;;;1.85;;
47153;SDS011;32907;41.412;2.164;2023-04-06T15:09:01;3.80;;;1.33;;
47153;SDS011;32907;41.412;2.164;2023-04-06T15:11:30;4.78;;;1.58;;